Time;durP1;ratioP1;P1;durP2;ratioP2;P2;SDS_P1;SDS_P2;PMS_P1;PMS_P2;Temp;Humidity;BMP_temperature;BMP_pressure;BME280_temperature;BME280_humidity;BME280_pressure;Samples;Min_cycle;Max_cycle;Signal;HPM_P1;HPM_P2
2023/01/25 00:02:04;;;;;;;;;;;;;;;6.33;51.73;102567.97;4964389;28;6953;-73
2023/01/25 00:04:30;;;;;;;;;;;;;;;6.34;52.15;102567.22;4975715;28;7210;-74
2023/01/25 00:06:56;;;;;;;;;;;;;;;6.34;51.31;102567.22;4984282;28;6946;-74
2023/01/25 00:09:24;;;;;;;;;;;;;;;6.35;51.30;102564.84;4996963;28;6858;-74
2023/01/25 00:11:51;;;;;;;;;;;;;;;6.35;51.75;102557.22;4983820;28;6852;-74
2023/01/25 00:14:16;;;;;;;;;;;;;;;6.34;51.93;102542.69;4986408;28;6784;-74
2023/01/25 00:16:43;;;;;;;;;;;;;;;6.32;51.42;102546.69;4987044;28;6919;-74
2023/01/25 00:19:10;;;;;;;;;;;;;;;6.31;51.92;102546.56;4982127;28;6856;-74
2023/01/25 00:21:36;;;;;;;;;;;;;;;6.30;52.00;102549.84;5001721;28;6947;-74
2023/01/25 00:24:03;;;;;;;;;;;;;;;6.28;51.97;102547.16;4972987;28;8615;-73
2023/01/25 00:26:29;;;;;;;;;;;;;;;6.29;51.69;102543.84;4983555;28;6784;-74
2023/01/25 00:28:55;;;;;;;;;;;;;;;6.26;51.56;102543.56;4972413;28;6979;-74
2023/01/25 00:31:37;;;;;;;;;;;;;;;6.27;51.76;102546.97;4960735;28;6994;-74
2023/01/25 00:34:41;;;;;;;;;;;;;;;6.25;51.76;102542.63;4986470;28;6864;-74
2023/01/25 00:37:46;;;;;;;;;;;;;;;6.25;51.74;102537.53;4954997;28;7103;-74
2023/01/25 00:40:12;;;;;;;;;;;;;;;6.23;52.31;102536.50;4979980;28;6816;-74
2023/01/25 00:42:39;;;;;;;;;;;;;;;6.23;52.04;102533.94;4981336;28;10702;-74
2023/01/25 00:45:05;;;;;;;;;;;;;;;6.23;51.50;102536.50;4966790;28;7311;-73
2023/01/25 00:47:31;;;;;;;;;;;;;;;6.20;51.30;102528.56;4982358;28;6812;-73
2023/01/25 00:49:56;;;;;;;;;;;;;;;6.19;51.82;102525.84;4981125;28;6768;-74
2023/01/25 00:52:22;;;;;;;;;;;;;;;6.18;51.44;102524.97;4981310;28;6792;-74
2023/01/25 00:54:48;;;;;;;;;;;;;;;6.19;51.82;102526.78;4972675;28;7220;-74
2023/01/25 00:57:13;;;;;;;;;;;;;;;6.17;52.00;102523.13;4982568;28;8035;-74
2023/01/25 00:59:43;;;;;;;;;;;;;;;6.21;51.82;102521.81;4982676;28;6788;-74
2023/01/25 01:02:10;;;;;;;;;;;;;;;6.23;52.08;102518.69;4980028;28;8127;-74
2023/01/25 01:04:36;;;;;;;;;;;;;;;6.26;52.23;102520.63;4982773;28;6792;-74
2023/01/25 01:07:01;;;;;;;;;;;;;;;6.28;52.72;102524.22;4978961;28;7254;-74
2023/01/25 01:09:27;;;;;;;;;;;;;;;6.29;51.94;102514.94;4981473;28;6768;-74
2023/01/25 01:11:53;;;;;;;;;;;;;;;6.28;52.27;102510.56;4980808;28;7019;-74
2023/01/25 01:14:21;;;;;;;;;;;;;;;6.30;52.48;102516.75;4984254;28;6859;-74
2023/01/25 01:16:47;;;;;;;;;;;;;;;6.30;52.35;102514.19;4980784;28;6799;-74
2023/01/25 01:19:15;;;;;;;;;;;;;;;6.33;52.04;102515.41;4979086;28;6772;-74
2023/01/25 01:21:41;;;;;;;;;;;;;;;6.34;52.07;102519.75;4985933;28;9085;-74
2023/01/25 01:24:09;;;;;;;;;;;;;;;6.37;51.91;102514.03;4976322;28;6788;-74
2023/01/25 01:26:35;;;;;;;;;;;;;;;6.36;52.00;102507.16;4983752;28;6796;-74
2023/01/25 01:29:00;;;;;;;;;;;;;;;6.36;52.39;102510.59;4981622;28;6768;-74
2023/01/25 01:31:26;;;;;;;;;;;;;;;6.36;51.76;102512.25;4978794;28;6775;-73
2023/01/25 01:33:55;;;;;;;;;;;;;;;6.36;51.92;102513.16;4975522;28;6976;-73
2023/01/25 01:36:25;;;;;;;;;;;;;;;6.35;52.38;102510.44;4964776;28;6965;-74
2023/01/25 01:38:52;;;;;;;;;;;;;;;6.35;52.14;102518.09;4983188;28;7090;-74
2023/01/25 01:41:18;;;;;;;;;;;;;;;6.32;52.05;102512.69;4981932;28;7404;-74
2023/01/25 01:43:44;;;;;;;;;;;;;;;6.31;51.82;102513.44;4978391;28;6807;-73
2023/01/25 01:46:21;;;;;;;;;;;;;;;6.27;51.68;102512.25;4989823;28;6859;-74
2023/01/25 01:48:56;;;;;;;;;;;;;;;6.24;52.11;102514.50;4979909;28;6816;-74
2023/01/25 01:51:49;;;;;;;;;;;;;;;6.21;52.35;102504.91;4978797;28;7053;-74
2023/01/25 01:54:24;;;;;;;;;;;;;;;6.17;51.95;102512.97;4979507;28;7238;-74
2023/01/25 01:57:05;;;;;;;;;;;;;;;6.16;52.35;102506.06;4980931;28;6827;-74
2023/01/25 01:59:42;;;;;;;;;;;;;;;6.17;52.31;102512.97;4974439;28;7100;-73
2023/01/25 02:02:07;;;;;;;;;;;;;;;6.18;52.02;102508.78;4978203;28;7067;-74
2023/01/25 02:04:34;;;;;;;;;;;;;;;6.15;52.44;102505.94;4984373;28;6999;-74
2023/01/25 02:07:16;;;;;;;;;;;;;;;6.14;52.35;102497.38;4991072;28;6953;-74
2023/01/25 02:09:43;;;;;;;;;;;;;;;6.14;52.57;102502.47;4990183;28;6808;-74
2023/01/25 02:12:11;;;;;;;;;;;;;;;6.17;52.50;102502.78;4984004;28;6796;-74
2023/01/25 02:14:48;;;;;;;;;;;;;;;6.20;52.46;102505.66;4978716;28;7234;-74
2023/01/25 02:17:14;;;;;;;;;;;;;;;6.23;52.79;102512.69;4982907;28;6804;-74
2023/01/25 02:19:52;;;;;;;;;;;;;;;6.25;52.63;102511.19;4969291;28;8653;-74
2023/01/25 02:22:33;;;;;;;;;;;;;;;6.27;53.02;102504.59;4964411;28;7000;-74
2023/01/25 02:25:12;;;;;;;;;;;;;;;6.28;52.58;102503.84;4982577;28;6812;-74
2023/01/25 02:27:47;;;;;;;;;;;;;;;6.29;52.18;102504.75;4983961;28;6812;-74
2023/01/25 02:30:13;;;;;;;;;;;;;;;6.23;52.37;102500.84;4986237;28;6823;-73
2023/01/25 02:32:38;;;;;;;;;;;;;;;6.19;52.25;102496.22;4976441;28;7335;-74
2023/01/25 02:35:05;;;;;;;;;;;;;;;6.14;53.04;102494.84;4982182;28;6788;-74
2023/01/25 02:37:30;;;;;;;;;;;;;;;6.13;52.85;102489.56;4973115;28;7211;-74
2023/01/25 02:39:56;;;;;;;;;;;;;;;6.11;52.67;102490.34;4983176;28;6788;-74
2023/01/25 02:42:22;;;;;;;;;;;;;;;6.10;52.84;102491.09;4987547;28;6776;-74
2023/01/25 02:44:50;;;;;;;;;;;;;;;6.10;53.25;102490.19;4986378;28;6784;-73
2023/01/25 02:47:16;;;;;;;;;;;;;;;6.13;53.11;102495.59;4983784;28;6800;-74
2023/01/25 02:49:41;;;;;;;;;;;;;;;6.15;53.01;102495.75;4981837;28;6788;-74
2023/01/25 02:52:07;;;;;;;;;;;;;;;6.16;52.92;102490.78;4983272;28;6772;-73
2023/01/25 02:54:32;;;;;;;;;;;;;;;6.17;52.43;102495.13;4978144;28;7134;-74
2023/01/25 02:56:58;;;;;;;;;;;;;;;6.20;52.64;102492.91;4982573;28;6779;-73
2023/01/25 02:59:24;;;;;;;;;;;;;;;6.20;52.83;102482.72;4986247;28;6859;-73
2023/01/25 03:01:50;;;;;;;;;;;;;;;6.22;52.89;102482.84;4984076;28;6792;-74
2023/01/25 03:04:15;;;;;;;;;;;;;;;6.24;53.14;102484.81;4983340;28;8462;-74
2023/01/25 03:06:41;;;;;;;;;;;;;;;6.26;52.73;102482.44;4982235;28;6939;-74
2023/01/25 03:09:10;;;;;;;;;;;;;;;6.24;52.83;102482.28;4974572;28;6934;-74
2023/01/25 03:11:35;;;;;;;;;;;;;;;6.24;52.88;102477.19;4978715;28;6800;-74
2023/01/25 03:14:02;;;;;;;;;;;;;;;6.23;53.30;102482.13;4985801;28;7188;-74
2023/01/25 03:16:30;;;;;;;;;;;;;;;6.24;52.53;102478.84;4986053;28;9464;-74
2023/01/25 03:18:56;;;;;;;;;;;;;;;6.21;52.81;102484.53;4982312;28;6856;-75
2023/01/25 03:21:22;;;;;;;;;;;;;;;6.15;52.70;102478.81;4983734;28;7965;-74
2023/01/25 03:24:00;;;;;;;;;;;;;;;6.10;52.85;102490.19;4984518;28;6776;-74
2023/01/25 03:26:27;;;;;;;;;;;;;;;6.09;53.33;102488.41;4981044;28;7131;-74
2023/01/25 03:28:53;;;;;;;;;;;;;;;6.10;53.17;102486.00;4981092;28;7075;-74
2023/01/25 03:31:19;;;;;;;;;;;;;;;6.11;53.12;102492.00;4983314;28;6944;-74
2023/01/25 03:33:45;;;;;;;;;;;;;;;6.11;53.08;102482.69;5002717;28;6839;-73
2023/01/25 03:36:11;;;;;;;;;;;;;;;6.13;53.16;102480.31;4979934;28;6784;-74
2023/01/25 03:38:37;;;;;;;;;;;;;;;6.14;53.25;102482.09;4982196;28;6961;-74
2023/01/25 03:41:03;;;;;;;;;;;;;;;6.16;53.45;102484.81;4973834;28;6953;-74
2023/01/25 03:43:29;;;;;;;;;;;;;;;6.17;53.29;102476.44;4972582;28;6865;-76
2023/01/25 03:46:00;;;;;;;;;;;;;;;6.16;52.94;102472.97;4981157;28;8606;-73
2023/01/25 03:48:28;;;;;;;;;;;;;;;6.16;53.42;102470.41;4983467;28;7243;-73
2023/01/25 03:50:57;;;;;;;;;;;;;;;6.16;53.22;102469.53;4978187;28;6800;-73
2023/01/25 03:53:28;;;;;;;;;;;;;;;6.15;53.37;102462.66;4981726;28;6808;-73
2023/01/25 03:56:01;;;;;;;;;;;;;;;6.12;52.86;102463.25;5000488;28;6990;-73
2023/01/25 03:58:28;;;;;;;;;;;;;;;6.07;52.94;102465.31;4985649;28;6887;-73
2023/01/25 04:00:56;;;;;;;;;;;;;;;6.03;53.16;102468.28;4981293;28;7989;-73
2023/01/25 04:03:24;;;;;;;;;;;;;;;6.01;53.36;102462.13;4981572;28;6860;-73
2023/01/25 04:05:51;;;;;;;;;;;;;;;6.01;53.29;102469.75;4984286;28;6987;-73
2023/01/25 04:08:17;;;;;;;;;;;;;;;6.00;53.41;102469.63;4978016;28;6859;-73
2023/01/25 04:10:43;;;;;;;;;;;;;;;6.00;53.33;102462.00;4986432;28;6958;-73
2023/01/25 04:13:09;;;;;;;;;;;;;;;6.00;53.45;102456.91;4985625;28;6983;-73
2023/01/25 04:15:35;;;;;;;;;;;;;;;6.01;53.28;102456.16;4984912;28;6927;-73
2023/01/25 04:18:01;;;;;;;;;;;;;;;5.99;53.57;102458.53;4967200;28;8334;-73
2023/01/25 04:20:27;;;;;;;;;;;;;;;5.99;53.58;102450.91;4986683;28;7224;-73
2023/01/25 04:22:52;;;;;;;;;;;;;;;6.01;53.63;102448.50;4970180;28;7015;-73
2023/01/25 04:25:18;;;;;;;;;;;;;;;6.00;53.58;102449.25;4982153;28;6780;-73
2023/01/25 04:27:44;;;;;;;;;;;;;;;6.00;53.53;102444.19;4977174;28;7257;-73
2023/01/25 04:30:10;;;;;;;;;;;;;;;5.99;53.69;102430.53;4985028;28;7616;-73
2023/01/25 04:32:36;;;;;;;;;;;;;;;6.02;53.71;102433.41;4978367;28;7278;-73
2023/01/25 04:35:01;;;;;;;;;;;;;;;6.03;53.56;102437.75;4980444;28;6980;-73
2023/01/25 04:37:27;;;;;;;;;;;;;;;6.03;53.47;102436.88;4962858;28;7031;-73
2023/01/25 04:39:53;;;;;;;;;;;;;;;5.99;53.37;102430.53;4979908;28;6788;-73
2023/01/25 04:42:18;;;;;;;;;;;;;;;5.96;53.61;102436.22;4977570;28;7195;-73
2023/01/25 04:44:44;;;;;;;;;;;;;;;5.95;53.72;102424.22;4986227;28;6784;-73
2023/01/25 04:47:09;;;;;;;;;;;;;;;5.96;54.03;102427.69;4987652;28;8086;-73
2023/01/25 04:49:35;;;;;;;;;;;;;;;5.97;53.81;102425.28;4978425;28;6943;-73
2023/01/25 04:52:01;;;;;;;;;;;;;;;5.96;53.64;102418.38;4978354;28;6961;-73
2023/01/25 04:54:26;;;;;;;;;;;;;;;5.97;53.68;102416.75;4998547;28;6776;-73
2023/01/25 04:56:52;;;;;;;;;;;;;;;5.97;53.46;102412.56;4979513;28;6941;-73
2023/01/25 04:59:17;;;;;;;;;;;;;;;6.00;53.96;102406.88;4985837;28;6856;-73
2023/01/25 05:01:43;;;;;;;;;;;;;;;6.04;53.69;102408.13;4981424;28;6780;-73
2023/01/25 05:04:09;;;;;;;;;;;;;;;6.05;53.67;102404.81;4976173;28;7176;-73
2023/01/25 05:06:34;;;;;;;;;;;;;;;6.03;53.56;102414.84;4969779;28;6961;-73
2023/01/25 05:09:00;;;;;;;;;;;;;;;6.00;53.63;102417.06;4981975;28;6768;-73
2023/01/25 05:11:26;;;;;;;;;;;;;;;5.97;53.70;102415.09;4972486;28;7431;-73
2023/01/25 05:13:53;;;;;;;;;;;;;;;5.94;54.28;102407.16;4978771;28;7063;-73
2023/01/25 05:16:19;;;;;;;;;;;;;;;5.93;54.08;102413.00;4978849;28;6873;-73
2023/01/25 05:18:45;;;;;;;;;;;;;;;5.94;53.69;102408.78;4982757;28;6851;-73
2023/01/25 05:21:56;;;;;;;;;;;;;;;5.93;53.73;102404.47;4969590;28;6963;-73
2023/01/25 05:23:56;;;;;;;;;;;;;;;5.90;53.79;102404.16;4982673;28;6816;-73
2023/01/25 05:29:07;;;;;;;;;;;;;;;5.81;53.76;102399.06;4980735;28;6801;-73
2023/01/25 05:31:33;;;;;;;;;;;;;;;5.78;53.99;102393.66;4981832;28;7361;-73
2023/01/25 05:33:58;;;;;;;;;;;;;;;5.82;54.01;102394.13;4981096;28;6768;-73
2023/01/25 05:36:24;;;;;;;;;;;;;;;5.83;54.07;102393.38;4996173;28;6954;-73
2023/01/25 05:38:51;;;;;;;;;;;;;;;5.82;54.13;102386.47;4978686;28;6851;-73
2023/01/25 05:41:17;;;;;;;;;;;;;;;5.83;53.85;102387.41;4982752;28;7253;-74
2023/01/25 05:43:43;;;;;;;;;;;;;;;5.85;54.04;102388.44;4984718;28;7135;-74
2023/01/25 05:46:08;;;;;;;;;;;;;;;5.84;53.77;102384.09;4980814;28;6772;-73
2023/01/25 05:48:34;;;;;;;;;;;;;;;5.83;54.23;102382.31;4971873;28;6936;-73
2023/01/25 05:51:00;;;;;;;;;;;;;;;5.83;54.77;102380.63;4981104;28;6768;-73
2023/01/25 05:53:27;;;;;;;;;;;;;;;5.85;54.22;102388.44;4977783;28;6772;-73
2023/01/25 05:55:53;;;;;;;;;;;;;;;5.89;54.01;102387.09;4982667;28;6788;-73
2023/01/25 05:58:19;;;;;;;;;;;;;;;5.90;54.31;102387.25;4983020;28;7229;-73
2023/01/25 06:00:44;;;;;;;;;;;;;;;5.93;54.50;102379.00;4979077;28;7141;-73
2023/01/25 06:03:10;;;;;;;;;;;;;;;5.95;54.48;102377.53;4984313;28;6918;-73
2023/01/25 06:05:36;;;;;;;;;;;;;;;6.00;54.28;102380.53;4976729;28;6772;-73
2023/01/25 06:08:01;;;;;;;;;;;;;;;6.02;54.55;102384.16;4977687;28;6991;-73
2023/01/25 06:10:27;;;;;;;;;;;;;;;6.02;54.71;102379.06;4980438;28;6848;-73
2023/01/25 06:12:58;;;;;;;;;;;;;;;6.05;54.74;102387.00;4981579;28;6839;-73
2023/01/25 06:15:24;;;;;;;;;;;;;;;6.07;54.50;102388.94;4999670;28;6840;-73
2023/01/25 06:17:54;;;;;;;;;;;;;;;6.07;54.01;102382.94;4984968;28;7177;-73
2023/01/25 06:20:20;;;;;;;;;;;;;;;6.02;54.38;102385.03;4982961;28;7242;-73
2023/01/25 06:22:51;;;;;;;;;;;;;;;6.00;54.50;102380.53;4985553;28;7363;-73
2023/01/25 06:25:17;;;;;;;;;;;;;;;5.96;54.76;102382.75;4985359;28;7016;-73
2023/01/25 06:27:43;;;;;;;;;;;;;;;5.99;54.54;102382.16;4979284;28;6986;-73
2023/01/25 06:30:10;;;;;;;;;;;;;;;6.02;54.77;102376.53;4998256;28;7118;-73
2023/01/25 06:32:36;;;;;;;;;;;;;;;6.05;54.86;102379.34;5000319;28;11289;-73
2023/01/25 06:35:02;;;;;;;;;;;;;;;6.04;54.64;102378.47;4980088;28;7076;-72
2023/01/25 06:37:27;;;;;;;;;;;;;;;6.04;54.49;102372.47;4982534;28;6995;-73
2023/01/25 06:39:53;;;;;;;;;;;;;;;6.02;54.66;102372.31;4980777;28;6787;-73
2023/01/25 06:42:19;;;;;;;;;;;;;;;6.03;54.71;102375.75;4977665;28;8206;-73
2023/01/25 06:44:44;;;;;;;;;;;;;;;5.99;54.09;102374.53;4981417;28;6838;-73
2023/01/25 06:47:11;;;;;;;;;;;;;;;5.94;54.22;102375.72;4978945;28;8810;-73
2023/01/25 06:49:37;;;;;;;;;;;;;;;5.92;54.70;102374.66;4990483;28;6847;-73
2023/01/25 06:52:03;;;;;;;;;;;;;;;5.91;54.92;102381.41;4983649;28;6985;-74
2023/01/25 06:54:28;;;;;;;;;;;;;;;5.88;54.56;102380.22;4978462;28;6959;-73
2023/01/25 06:56:54;;;;;;;;;;;;;;;5.83;54.31;102362.81;4959340;28;7239;-73
2023/01/25 06:59:20;;;;;;;;;;;;;;;5.81;54.28;102369.41;4985800;28;6865;-73
2023/01/25 07:01:45;;;;;;;;;;;;;;;5.83;54.85;102369.56;4992005;28;7266;-73
2023/01/25 07:04:11;;;;;;;;;;;;;;;5.83;55.21;102367.03;4991842;28;7168;-73
2023/01/25 07:06:37;;;;;;;;;;;;;;;5.82;54.93;102365.25;4994291;28;7000;-73
2023/01/25 07:09:09;;;;;;;;;;;;;;;5.81;54.94;102363.44;4983611;28;8248;-73
2023/01/25 07:11:36;;;;;;;;;;;;;;;5.80;55.32;102372.72;4980362;28;6780;-73
2023/01/25 07:14:02;;;;;;;;;;;;;;;5.78;54.74;102378.38;4981140;28;6999;-73
2023/01/25 07:16:35;;;;;;;;;;;;;;;5.77;54.69;102371.50;4978682;28;7091;-73
2023/01/25 07:19:05;;;;;;;;;;;;;;;5.77;55.16;102371.50;4980661;28;6903;-73
2023/01/25 07:21:31;;;;;;;;;;;;;;;5.76;55.40;102367.16;4984515;28;6788;-73
2023/01/25 07:24:01;;;;;;;;;;;;;;;5.75;55.07;102367.91;4975021;28;6947;-73
2023/01/25 07:26:27;;;;;;;;;;;;;;;5.73;54.74;102372.84;4983935;28;6939;-73
2023/01/25 07:28:56;;;;;;;;;;;;;;;5.68;55.31;102364.75;4982717;28;7227;-73
2023/01/25 07:31:22;;;;;;;;;;;;;;;5.67;55.35;102375.69;4970268;28;6969;-73
2023/01/25 07:33:50;;;;;;;;;;;;;;;5.67;55.22;102374.81;4983732;28;7135;-73
2023/01/25 07:36:16;;;;;;;;;;;;;;;5.66;55.63;102373.00;4976094;28;6969;-73
2023/01/25 07:38:42;;;;;;;;;;;;;;;5.62;55.02;102374.34;4991716;28;7148;-73
2023/01/25 07:41:07;;;;;;;;;;;;;;;5.61;55.33;102377.63;4980148;28;6784;-73
2023/01/25 07:43:33;;;;;;;;;;;;;;;5.63;55.47;102375.22;4985205;28;6839;-73
2023/01/25 07:46:02;;;;;;;;;;;;;;;5.64;55.50;102375.38;4984863;28;7592;-73
2023/01/25 07:48:28;;;;;;;;;;;;;;;5.64;55.25;102375.38;4983458;28;6804;-73
2023/01/25 07:51:11;;;;;;;;;;;;;;;5.65;55.84;102381.34;4983998;28;6772;-73
2023/01/25 07:53:42;;;;;;;;;;;;;;;5.65;55.45;102384.81;4990761;28;7119;-73
2023/01/25 07:56:10;;;;;;;;;;;;;;;5.65;55.61;102374.63;4981681;28;6803;-73
2023/01/25 07:58:36;;;;;;;;;;;;;;;5.67;55.45;102375.69;4958960;28;7238;-73
2023/01/25 08:01:17;;;;;;;;;;;;;;;5.65;55.26;102378.81;4958249;28;7267;-73
2023/01/25 08:03:44;;;;;;;;;;;;;;;5.62;54.69;102381.06;4965161;28;7079;-73
2023/01/25 08:06:10;;;;;;;;;;;;;;;5.57;55.38;102372.97;4985512;28;7786;-73
2023/01/25 08:08:41;;;;;;;;;;;;;;;5.52;55.86;102374.16;4983687;28;6859;-73
2023/01/25 08:11:14;;;;;;;;;;;;;;;5.51;55.58;102372.38;4980010;28;7718;-73
2023/01/25 08:13:45;;;;;;;;;;;;;;;5.48;55.28;102375.50;4957698;28;6995;-73
2023/01/25 08:16:16;;;;;;;;;;;;;;;5.45;55.70;102375.16;4981870;28;7059;-73
2023/01/25 08:18:45;;;;;;;;;;;;;;;5.43;55.58;102366.50;4977895;28;6800;-73
2023/01/25 08:21:11;;;;;;;;;;;;;;;5.42;55.81;102367.25;4981769;28;6950;-73
2023/01/25 08:23:37;;;;;;;;;;;;;;;5.41;55.66;102366.38;4992451;28;7038;-73
2023/01/25 08:26:07;;;;;;;;;;;;;;;5.42;56.07;102360.53;4981661;28;6768;-73
2023/01/25 08:28:34;;;;;;;;;;;;;;;5.45;56.34;102359.03;4981498;28;6855;-73
2023/01/25 08:31:19;;;;;;;;;;;;;;;5.48;56.20;102365.31;4978595;28;6864;-73
2023/01/25 08:33:46;;;;;;;;;;;;;;;5.51;56.15;102365.63;4980703;28;7366;-73
2023/01/25 08:36:14;;;;;;;;;;;;;;;5.55;55.85;102355.03;4979822;28;7789;-73
2023/01/25 08:38:40;;;;;;;;;;;;;;;5.60;56.09;102359.66;4974901;28;6856;-73
2023/01/25 08:41:08;;;;;;;;;;;;;;;5.62;56.05;102365.78;4976841;28;6784;-73
2023/01/25 08:43:35;;;;;;;;;;;;;;;5.63;55.72;102357.41;4981505;28;8732;-73
2023/01/25 08:46:01;;;;;;;;;;;;;;;5.63;55.96;102344.69;4975520;28;6979;-73
2023/01/25 08:48:26;;;;;;;;;;;;;;;5.63;56.24;102352.31;4980188;28;6784;-73
2023/01/25 08:50:52;;;;;;;;;;;;;;;5.63;55.91;102348.16;4982576;28;6852;-73
2023/01/25 08:53:18;;;;;;;;;;;;;;;5.64;56.27;102349.03;4984367;28;6844;-73
2023/01/25 08:55:44;;;;;;;;;;;;;;;5.66;56.41;102358.63;4983339;28;6982;-73
2023/01/25 08:58:15;;;;;;;;;;;;;;;5.67;56.35;102355.31;4980257;28;6848;-74
2023/01/25 09:00:43;;;;;;;;;;;;;;;5.69;55.83;102353.81;4989503;28;7079;-73
2023/01/25 09:03:10;;;;;;;;;;;;;;;5.73;55.83;102344.84;4981705;28;6784;-73
2023/01/25 09:05:38;;;;;;;;;;;;;;;5.74;56.11;102339.00;4977922;28;6804;-73
2023/01/25 09:08:06;;;;;;;;;;;;;;;5.76;56.16;102342.63;4980977;28;7039;-73
2023/01/25 09:10:33;;;;;;;;;;;;;;;5.77;56.31;102340.97;4956083;28;7062;-73
2023/01/25 09:12:59;;;;;;;;;;;;;;;5.79;56.10;102340.38;4978563;28;6899;-73
2023/01/25 09:15:26;;;;;;;;;;;;;;;5.83;56.19;102345.00;4981350;28;7113;-73
2023/01/25 09:17:53;;;;;;;;;;;;;;;5.88;56.15;102335.28;4980237;28;7460;-73
2023/01/25 09:20:19;;;;;;;;;;;;;;;5.92;56.38;102337.41;4983946;28;6792;-73
2023/01/25 09:22:45;;;;;;;;;;;;;;;5.93;55.96;102334.09;4980654;28;7412;-73
2023/01/25 09:25:11;;;;;;;;;;;;;;;5.94;55.93;102338.44;4958076;28;7126;-73
2023/01/25 09:27:37;;;;;;;;;;;;;;;5.95;56.00;102327.50;4973866;28;7453;-73
2023/01/25 09:30:06;;;;;;;;;;;;;;;5.96;55.75;102333.50;4979412;28;6780;-73
2023/01/25 09:32:32;;;;;;;;;;;;;;;5.92;55.78;102329.75;4974570;28;7798;-73
2023/01/25 09:34:57;;;;;;;;;;;;;;;5.86;55.89;102334.25;4980858;28;6796;-73
2023/01/25 09:37:23;;;;;;;;;;;;;;;5.78;55.57;102332.59;4976409;28;6768;-73
2023/01/25 09:39:49;;;;;;;;;;;;;;;5.73;55.75;102328.72;4980750;28;7007;-73
2023/01/25 09:42:32;;;;;;;;;;;;;;;5.73;56.08;102331.25;4980032;28;6836;-73
2023/01/25 09:45:21;;;;;;;;;;;;;;;5.73;55.83;102321.94;4967127;28;7128;-73
2023/01/25 09:48:24;;;;;;;;;;;;;;;5.68;55.80;102316.41;4973767;28;7254;-73
2023/01/25 09:51:26;;;;;;;;;;;;;;;5.62;55.67;102310.75;4983143;28;7218;-73
2023/01/25 09:53:55;;;;;;;;;;;;;;;5.57;55.82;102322.09;4994235;28;6820;-73
2023/01/25 09:56:29;;;;;;;;;;;;;;;5.54;56.10;102307.41;4992822;28;8110;-73
2023/01/25 09:59:02;;;;;;;;;;;;;;;5.53;55.68;102307.28;4979567;28;6822;-73
2023/01/25 10:01:56;;;;;;;;;;;;;;;5.53;56.01;102307.28;4980886;28;6811;-73
2023/01/25 10:04:50;;;;;;;;;;;;;;;5.54;56.39;102306.53;4969652;28;7630;-73
2023/01/25 10:07:48;;;;;;;;;;;;;;;5.58;56.43;102308.63;4971935;28;8133;-73
2023/01/25 10:10:49;;;;;;;;;;;;;;;5.61;56.60;102303.84;4978096;28;6816;-73
2023/01/25 10:13:21;;;;;;;;;;;;;;;5.67;56.46;102303.56;4962838;28;6821;-73
2023/01/25 10:15:54;;;;;;;;;;;;;;;5.70;56.27;102298.75;4986052;28;7075;-74
2023/01/25 10:18:47;;;;;;;;;;;;;;;5.73;56.34;102293.97;4981283;28;6800;-73
2023/01/25 10:21:39;;;;;;;;;;;;;;;5.76;56.57;102298.47;4981795;28;6823;-73
2023/01/25 10:24:52;;;;;;;;;;;;;;;5.78;56.59;102287.69;4984796;28;6901;-73
2023/01/25 10:27:57;;;;;;;;;;;;;;;5.80;56.58;102292.94;4979512;28;7161;-73
2023/01/25 10:30:30;;;;;;;;;;;;;;;5.82;56.46;102283.81;4982841;28;6876;-73
2023/01/25 10:33:14;;;;;;;;;;;;;;;5.86;56.54;102283.34;4981840;28;6788;-73
2023/01/25 10:35:46;;;;;;;;;;;;;;;5.91;56.75;102289.78;4989869;28;6892;-73
2023/01/25 10:38:33;;;;;;;;;;;;;;;5.96;56.41;102282.59;4981792;28;7037;-73
2023/01/25 10:41:10;;;;;;;;;;;;;;;5.95;56.25;102279.16;4986238;28;6970;-73
2023/01/25 10:43:37;;;;;;;;;;;;;;;5.98;56.82;102283.66;4972231;28;6896;-73
2023/01/25 10:46:20;;;;;;;;;;;;;;;6.01;56.48;102280.50;4959035;28;7385;-73
2023/01/25 10:48:46;;;;;;;;;;;;;;;6.04;56.34;102275.72;4978770;28;6792;-73
2023/01/25 10:51:29;;;;;;;;;;;;;;;6.02;56.20;102274.69;4982916;28;6780;-73
2023/01/25 10:54:03;;;;;;;;;;;;;;;6.00;55.61;102258.34;4985837;28;7436;-73
2023/01/25 10:56:32;;;;;;;;;;;;;;;5.95;56.13;102256.25;4977038;28;6816;-73
2023/01/25 10:59:19;;;;;;;;;;;;;;;5.92;55.97;102255.94;4956378;28;8099;-73
2023/01/25 11:01:44;;;;;;;;;;;;;;;5.83;56.23;102250.84;4987749;28;7395;-73
2023/01/25 11:04:28;;;;;;;;;;;;;;;5.76;55.96;102245.03;4982595;28;6954;-73
2023/01/25 11:06:53;;;;;;;;;;;;;;;5.67;56.15;102240.84;4992650;28;6904;-72
2023/01/25 11:09:21;;;;;;;;;;;;;;;5.64;55.74;102238.00;4984501;28;6977;-73
2023/01/25 11:12:00;;;;;;;;;;;;;;;5.59;55.83;102236.63;5002512;28;7980;-73
2023/01/25 11:14:32;;;;;;;;;;;;;;;5.56;56.19;102241.44;5000487;28;6812;-73
2023/01/25 11:17:00;;;;;;;;;;;;;;;5.51;56.39;102235.91;4982927;28;6963;-73
2023/01/25 11:19:39;;;;;;;;;;;;;;;5.49;56.39;102236.50;4969765;28;8537;-73
2023/01/25 11:22:22;;;;;;;;;;;;;;;5.44;56.11;102232.63;4998254;28;6776;-73
2023/01/25 11:24:48;;;;;;;;;;;;;;;5.40;56.48;102222.13;4991128;28;7000;-73
2023/01/25 11:27:24;;;;;;;;;;;;;;;5.42;56.57;102223.19;4980887;28;8423;-73
2023/01/25 11:30:15;;;;;;;;;;;;;;;5.47;56.66;102213.47;4986360;28;7000;-73
2023/01/25 11:32:41;;;;;;;;;;;;;;;5.53;56.74;102203.00;4987050;28;11325;-73
2023/01/25 11:35:19;;;;;;;;;;;;;;;5.63;56.96;102199.69;4996156;28;8553;-73
2023/01/25 11:38:07;;;;;;;;;;;;;;;5.69;57.34;102193.53;4985341;28;6990;-73
2023/01/25 11:40:49;;;;;;;;;;;;;;;5.77;56.68;102185.75;5004533;28;6811;-73
2023/01/25 11:44:12;;;;;;;;;;;;;;;5.85;57.15;102182.28;4989450;28;8686;-73
2023/01/25 11:47:11;;;;;;;;;;;;;;;5.91;56.80;102167.63;5002663;28;7079;-73
2023/01/25 11:50:06;;;;;;;;;;;;;;;5.93;56.64;102173.75;5004207;28;6811;-73
2023/01/25 11:53:18;;;;;;;;;;;;;;;5.98;56.79;102164.00;5004307;28;6831;-73
2023/01/25 11:55:55;;;;;;;;;;;;;;;6.03;56.98;102160.25;4987752;28;7022;-73
2023/01/25 11:58:53;;;;;;;;;;;;;;;6.08;56.65;102150.50;4979871;28;7001;-73
2023/01/25 12:01:36;;;;;;;;;;;;;;;6.13;56.74;102149.31;5003471;28;6831;-73
2023/01/25 12:04:11;;;;;;;;;;;;;;;6.16;56.80;102148.72;5000628;28;6820;-73
2023/01/25 12:06:51;;;;;;;;;;;;;;;6.14;56.32;102135.81;5003420;28;6784;-73
2023/01/25 12:09:22;;;;;;;;;;;;;;;6.13;56.46;102131.50;4998320;28;6942;-73
2023/01/25 12:11:53;;;;;;;;;;;;;;;6.13;56.58;102123.84;4987236;28;7064;-73
2023/01/25 12:14:37;;;;;;;;;;;;;;;6.14;56.49;102122.22;4985905;28;6800;-73
2023/01/25 12:17:24;;;;;;;;;;;;;;;6.09;56.41;102106.50;5004263;28;6815;-73
2023/01/25 12:20:38;;;;;;;;;;;;;;;6.06;56.42;102106.22;4983452;28;7162;-73
2023/01/25 12:23:13;;;;;;;;;;;;;;;6.00;56.26;102095.44;4975360;28;8433;-73
2023/01/25 12:25:55;;;;;;;;;;;;;;;5.94;56.72;102083.91;4987770;28;7164;-73
2023/01/25 12:28:27;;;;;;;;;;;;;;;5.90;56.37;102084.38;4985389;28;6792;-73
2023/01/25 12:31:18;;;;;;;;;;;;;;;5.86;56.63;102074.66;4986589;28;7126;-73
2023/01/25 12:33:59;;;;;;;;;;;;;;;5.82;56.59;102064.97;4992381;28;6796;-73
2023/01/25 12:36:30;;;;;;;;;;;;;;;5.78;56.60;102052.69;5002421;28;6792;-73
2023/01/25 12:39:09;;;;;;;;;;;;;;;5.75;56.49;102045.69;5000676;28;6811;-73
2023/01/25 12:41:46;;;;;;;;;;;;;;;5.74;56.42;102040.44;4982329;28;6995;-73
2023/01/25 12:44:26;;;;;;;;;;;;;;;5.69;56.70;102033.25;4993572;28;6820;-73
2023/01/25 12:47:22;;;;;;;;;;;;;;;5.66;56.31;102038.06;4999603;28;6796;-73
2023/01/25 12:50:18;;;;;;;;;;;;;;;5.63;56.87;102030.16;4993814;28;6868;-73
2023/01/25 12:53:16;;;;;;;;;;;;;;;5.59;56.77;102025.50;4988627;28;7890;-73
2023/01/25 12:55:43;;;;;;;;;;;;;;;5.58;56.68;102012.66;4985586;28;7041;-73
2023/01/25 12:58:38;;;;;;;;;;;;;;;5.56;56.46;102008.31;4986843;28;6788;-73
2023/01/25 13:01:24;;;;;;;;;;;;;;;5.51;57.11;101998.47;5000449;28;7280;-73
2023/01/25 13:04:30;;;;;;;;;;;;;;;5.49;56.75;101987.25;4982303;28;6895;-73
2023/01/25 13:07:02;;;;;;;;;;;;;;;5.44;56.63;101994.44;5004893;28;6807;-73
2023/01/25 13:09:49;;;;;;;;;;;;;;;5.45;56.89;101988.59;4987712;28;7032;-73
2023/01/25 13:12:14;;;;;;;;;;;;;;;5.49;56.97;101971.97;4989215;28;8095;-73
2023/01/25 13:14:41;;;;;;;;;;;;;;;5.58;57.00;101967.75;4984244;28;7143;-73
2023/01/25 13:17:31;;;;;;;;;;;;;;;5.68;56.74;101965.31;4985245;28;7047;-73
2023/01/25 13:19:58;;;;;;;;;;;;;;;5.75;56.98;101965.88;4957531;28;8452;-73
2023/01/25 13:22:42;;;;;;;;;;;;;;;5.80;56.97;101960.47;4979279;28;6875;-73
2023/01/25 13:25:28;;;;;;;;;;;;;;;5.86;56.74;101960.13;5001027;28;6792;-73